sensor_id;sensor_type;location;lat;lon;timestamp;temperature;humidity
64951;DHT22;51482;47.014;7.652;2023-03-23T00:01:17;10.60;99.90
64951;DHT22;51482;47.014;7.652;2023-03-23T00:03:51;10.70;99.90
64951;DHT22;51482;47.014;7.652;2023-03-23T00:06:19;10.60;99.90
64951;DHT22;51482;47.014;7.652;2023-03-23T00:08:47;10.10;99.90
64951;DHT22;51482;47.014;7.652;2023-03-23T00:11:20;10.60;99.90
64951;DHT22;51482;47.014;7.652;2023-03-23T00:13:47;10.50;99.90
64951;DHT22;51482;47.014;7.652;2023-03-23T00:16:16;10.50;99.90
64951;DHT22;51482;47.014;7.652;2023-03-23T00:18:45;10.70;99.90
64951;DHT22;51482;47.014;7.652;2023-03-23T00:21:11;10.40;99.90
64951;DHT22;51482;47.014;7.652;2023-03-23T00:23:36;10.00;99.90
64951;DHT22;51482;47.014;7.652;2023-03-23T00:26:03;10.50;99.90
64951;DHT22;51482;47.014;7.652;2023-03-23T00:28:29;9.90;99.90
64951;DHT22;51482;47.014;7.652;2023-03-23T00:31:05;10.60;99.90
64951;DHT22;51482;47.014;7.652;2023-03-23T00:33:33;10.00;99.90
64951;DHT22;51482;47.014;7.652;2023-03-23T00:36:04;10.10;99.90
64951;DHT22;51482;47.014;7.652;2023-03-23T00:38:29;10.10;99.90
64951;DHT22;51482;47.014;7.652;2023-03-23T00:40:55;10.00;99.90
64951;DHT22;51482;47.014;7.652;2023-03-23T00:43:23;10.60;99.90
64951;DHT22;51482;47.014;7.652;2023-03-23T00:45:51;10.00;99.90
64951;DHT22;51482;47.014;7.652;2023-03-23T00:48:20;10.50;99.90
64951;DHT22;51482;47.014;7.652;2023-03-23T00:50:46;10.40;99.90
64951;DHT22;51482;47.014;7.652;2023-03-23T00:53:12;10.40;99.90
64951;DHT22;51482;47.014;7.652;2023-03-23T00:55:39;10.50;99.90
64951;DHT22;51482;47.014;7.652;2023-03-23T00:58:05;10.50;99.90
64951;DHT22;51482;47.014;7.652;2023-03-23T01:00:30;9.90;99.90
64951;DHT22;51482;47.014;7.652;2023-03-23T01:02:56;10.40;99.90
64951;DHT22;51482;47.014;7.652;2023-03-23T01:05:22;10.60;99.90
64951;DHT22;51482;47.014;7.652;2023-03-23T01:07:47;10.50;99.90
64951;DHT22;51482;47.014;7.652;2023-03-23T01:10:14;10.70;99.90
64951;DHT22;51482;47.014;7.652;2023-03-23T01:12:44;10.10;99.90
64951;DHT22;51482;47.014;7.652;2023-03-23T01:15:14;10.10;99.90
64951;DHT22;51482;47.014;7.652;2023-03-23T01:17:41;10.70;99.90
64951;DHT22;51482;47.014;7.652;2023-03-23T01:20:08;10.60;99.90
64951;DHT22;51482;47.014;7.652;2023-03-23T01:22:34;10.10;99.90
64951;DHT22;51482;47.014;7.652;2023-03-23T01:24:59;10.60;99.90
64951;DHT22;51482;47.014;7.652;2023-03-23T01:27:25;10.10;99.90
64951;DHT22;51482;47.014;7.652;2023-03-23T01:29:50;10.00;99.90
64951;DHT22;51482;47.014;7.652;2023-03-23T01:32:16;10.10;99.90
64951;DHT22;51482;47.014;7.652;2023-03-23T01:34:42;10.20;99.90
64951;DHT22;51482;47.014;7.652;2023-03-23T01:37:08;10.20;99.90
64951;DHT22;51482;47.014;7.652;2023-03-23T01:39:36;10.60;99.90
64951;DHT22;51482;47.014;7.652;2023-03-23T01:42:02;10.50;99.90
64951;DHT22;51482;47.014;7.652;2023-03-23T01:46:57;9.90;99.90
64951;DHT22;51482;47.014;7.652;2023-03-23T01:49:42;10.30;99.90
64951;DHT22;51482;47.014;7.652;2023-03-23T01:52:14;10.50;99.90
64951;DHT22;51482;47.014;7.652;2023-03-23T01:54:42;10.40;99.90
64951;DHT22;51482;47.014;7.652;2023-03-23T01:57:13;10.40;99.90
64951;DHT22;51482;47.014;7.652;2023-03-23T01:59:42;10.30;99.90
64951;DHT22;51482;47.014;7.652;2023-03-23T02:02:09;10.10;99.90
64951;DHT22;51482;47.014;7.652;2023-03-23T02:04:36;10.50;99.90
64951;DHT22;51482;47.014;7.652;2023-03-23T02:07:03;9.90;99.90
64951;DHT22;51482;47.014;7.652;2023-03-23T02:09:29;10.40;99.90
64951;DHT22;51482;47.014;7.652;2023-03-23T02:11:56;10.40;99.90
64951;DHT22;51482;47.014;7.652;2023-03-23T02:14:24;10.30;99.90
64951;DHT22;51482;47.014;7.652;2023-03-23T02:17:10;10.20;99.90
64951;DHT22;51482;47.014;7.652;2023-03-23T02:20:09;10.60;99.90
64951;DHT22;51482;47.014;7.652;2023-03-23T02:25:59;10.00;99.90
64951;DHT22;51482;47.014;7.652;2023-03-23T02:31:36;10.00;99.90
64951;DHT22;51482;47.014;7.652;2023-03-23T02:34:16;10.00;99.90
64951;DHT22;51482;47.014;7.652;2023-03-23T02:39:23;10.50;99.90
64951;DHT22;51482;47.014;7.652;2023-03-23T02:41:57;10.70;99.90
64951;DHT22;51482;47.014;7.652;2023-03-23T02:44:26;10.10;99.90
64951;DHT22;51482;47.014;7.652;2023-03-23T02:46:56;10.10;99.90
64951;DHT22;51482;47.014;7.652;2023-03-23T02:49:24;10.60;99.90
64951;DHT22;51482;47.014;7.652;2023-03-23T02:51:51;10.70;99.90
64951;DHT22;51482;47.014;7.652;2023-03-23T02:54:19;10.60;99.90
64951;DHT22;51482;47.014;7.652;2023-03-23T02:56:47;10.50;99.90
64951;DHT22;51482;47.014;7.652;2023-03-23T02:59:13;10.10;99.90
64951;DHT22;51482;47.014;7.652;2023-03-23T03:04:17;10.70;99.90
64951;DHT22;51482;47.014;7.652;2023-03-23T03:09:46;10.30;99.90
64951;DHT22;51482;47.014;7.652;2023-03-23T03:15:36;10.30;99.90
64951;DHT22;51482;47.014;7.652;2023-03-23T03:18:13;10.40;99.90
64951;DHT22;51482;47.014;7.652;2023-03-23T03:20:53;10.20;99.90
64951;DHT22;51482;47.014;7.652;2023-03-23T03:23:22;10.20;99.90
64951;DHT22;51482;47.014;7.652;2023-03-23T03:25:48;10.50;99.90
64951;DHT22;51482;47.014;7.652;2023-03-23T03:28:19;10.50;99.90
64951;DHT22;51482;47.014;7.652;2023-03-23T03:30:51;10.00;99.90
64951;DHT22;51482;47.014;7.652;2023-03-23T03:33:17;10.50;99.90
64951;DHT22;51482;47.014;7.652;2023-03-23T03:35:46;10.50;99.90
64951;DHT22;51482;47.014;7.652;2023-03-23T03:38:12;10.60;99.90
64951;DHT22;51482;47.014;7.652;2023-03-23T03:40:38;10.70;99.90
64951;DHT22;51482;47.014;7.652;2023-03-23T03:43:04;10.20;99.90
64951;DHT22;51482;47.014;7.652;2023-03-23T03:45:32;10.80;99.90
64951;DHT22;51482;47.014;7.652;2023-03-23T03:47:57;9.80;99.90
64951;DHT22;51482;47.014;7.652;2023-03-23T03:50:23;10.80;99.90
64951;DHT22;51482;47.014;7.652;2023-03-23T03:52:49;10.30;99.90
64951;DHT22;51482;47.014;7.652;2023-03-23T03:55:14;10.30;99.90
64951;DHT22;51482;47.014;7.652;2023-03-23T03:57:42;10.30;99.90
64951;DHT22;51482;47.014;7.652;2023-03-23T04:00:09;10.20;99.90
64951;DHT22;51482;47.014;7.652;2023-03-23T04:02:48;10.30;99.90
64951;DHT22;51482;47.014;7.652;2023-03-23T04:05:21;10.30;99.90
64951;DHT22;51482;47.014;7.652;2023-03-23T04:07:47;10.30;99.90
64951;DHT22;51482;47.014;7.652;2023-03-23T04:10:15;10.60;99.90
64951;DHT22;51482;47.014;7.652;2023-03-23T04:12:40;10.80;99.90
64951;DHT22;51482;47.014;7.652;2023-03-23T04:15:07;10.50;99.90
64951;DHT22;51482;47.014;7.652;2023-03-23T04:17:34;10.20;99.90
64951;DHT22;51482;47.014;7.652;2023-03-23T04:19:59;10.80;99.90
64951;DHT22;51482;47.014;7.652;2023-03-23T04:22:26;10.10;99.90
64951;DHT22;51482;47.014;7.652;2023-03-23T04:24:59;10.60;99.90
64951;DHT22;51482;47.014;7.652;2023-03-23T04:27:27;10.10;99.90
64951;DHT22;51482;47.014;7.652;2023-03-23T04:29:54;10.70;99.90
64951;DHT22;51482;47.014;7.652;2023-03-23T04:32:20;10.10;99.90
64951;DHT22;51482;47.014;7.652;2023-03-23T04:34:46;10.10;99.90
64951;DHT22;51482;47.014;7.652;2023-03-23T04:37:11;10.10;99.90
64951;DHT22;51482;47.014;7.652;2023-03-23T04:39:38;10.70;99.90
64951;DHT22;51482;47.014;7.652;2023-03-23T04:42:05;10.60;99.90
64951;DHT22;51482;47.014;7.652;2023-03-23T04:44:31;9.90;99.90
64951;DHT22;51482;47.014;7.652;2023-03-23T04:47:00;10.50;99.90
64951;DHT22;51482;47.014;7.652;2023-03-23T04:49:26;9.90;99.90
64951;DHT22;51482;47.014;7.652;2023-03-23T04:51:52;10.00;99.90
64951;DHT22;51482;47.014;7.652;2023-03-23T04:54:18;9.90;99.90
64951;DHT22;51482;47.014;7.652;2023-03-23T04:56:43;10.40;99.90
64951;DHT22;51482;47.014;7.652;2023-03-23T04:59:09;10.40;99.90
64951;DHT22;51482;47.014;7.652;2023-03-23T05:01:34;10.40;99.90
64951;DHT22;51482;47.014;7.652;2023-03-23T05:04:02;10.40;99.90
64951;DHT22;51482;47.014;7.652;2023-03-23T05:06:27;10.00;99.90
64951;DHT22;51482;47.014;7.652;2023-03-23T05:08:53;10.50;99.90
64951;DHT22;51482;47.014;7.652;2023-03-23T05:11:18;10.60;99.90
64951;DHT22;51482;47.014;7.652;2023-03-23T05:13:44;10.40;99.90
64951;DHT22;51482;47.014;7.652;2023-03-23T05:16:10;10.00;99.90
64951;DHT22;51482;47.014;7.652;2023-03-23T05:18:35;10.40;99.90
64951;DHT22;51482;47.014;7.652;2023-03-23T05:21:02;10.00;99.90
64951;DHT22;51482;47.014;7.652;2023-03-23T05:23:28;10.00;99.90
64951;DHT22;51482;47.014;7.652;2023-03-23T05:25:57;9.90;99.90
64951;DHT22;51482;47.014;7.652;2023-03-23T05:28:26;10.50;99.90
64951;DHT22;51482;47.014;7.652;2023-03-23T05:30:52;10.50;99.90
64951;DHT22;51482;47.014;7.652;2023-03-23T05:33:19;10.30;99.90
64951;DHT22;51482;47.014;7.652;2023-03-23T05:35:46;9.90;99.90
64951;DHT22;51482;47.014;7.652;2023-03-23T05:38:12;10.40;99.90
64951;DHT22;51482;47.014;7.652;2023-03-23T05:40:40;10.10;99.90
64951;DHT22;51482;47.014;7.652;2023-03-23T05:43:07;9.40;99.90
64951;DHT22;51482;47.014;7.652;2023-03-23T05:45:33;9.90;99.90
64951;DHT22;51482;47.014;7.652;2023-03-23T05:47:59;10.60;99.90
64951;DHT22;51482;47.014;7.652;2023-03-23T05:50:25;10.40;99.90
64951;DHT22;51482;47.014;7.652;2023-03-23T05:52:51;9.90;99.90
64951;DHT22;51482;47.014;7.652;2023-03-23T05:55:17;10.30;99.90
64951;DHT22;51482;47.014;7.652;2023-03-23T05:57:43;9.90;99.90
64951;DHT22;51482;47.014;7.652;2023-03-23T06:00:09;10.30;99.90
64951;DHT22;51482;47.014;7.652;2023-03-23T06:02:40;9.90;99.90
64951;DHT22;51482;47.014;7.652;2023-03-23T06:05:09;10.40;99.90
64951;DHT22;51482;47.014;7.652;2023-03-23T06:07:35;10.50;99.90
64951;DHT22;51482;47.014;7.652;2023-03-23T06:10:04;10.50;99.90
64951;DHT22;51482;47.014;7.652;2023-03-23T06:12:30;10.00;99.90
64951;DHT22;51482;47.014;7.652;2023-03-23T06:14:56;10.50;99.90
64951;DHT22;51482;47.014;7.652;2023-03-23T06:17:22;10.50;99.90
64951;DHT22;51482;47.014;7.652;2023-03-23T06:19:48;10.30;99.90
64951;DHT22;51482;47.014;7.652;2023-03-23T06:22:16;10.20;99.90
64951;DHT22;51482;47.014;7.652;2023-03-23T06:24:42;10.90;99.90
64951;DHT22;51482;47.014;7.652;2023-03-23T06:27:07;10.30;99.90
64951;DHT22;51482;47.014;7.652;2023-03-23T06:29:34;10.70;99.90
64951;DHT22;51482;47.014;7.652;2023-03-23T06:32:01;10.90;99.90
64951;DHT22;51482;47.014;7.652;2023-03-23T06:34:28;10.90;99.90
64951;DHT22;51482;47.014;7.652;2023-03-23T06:36:53;11.00;99.90
64951;DHT22;51482;47.014;7.652;2023-03-23T06:39:19;11.00;99.90
64951;DHT22;51482;47.014;7.652;2023-03-23T06:41:45;11.20;99.90
64951;DHT22;51482;47.014;7.652;2023-03-23T06:44:10;10.70;99.90
64951;DHT22;51482;47.014;7.652;2023-03-23T06:46:38;11.20;99.90
64951;DHT22;51482;47.014;7.652;2023-03-23T06:49:04;11.50;99.90
64951;DHT22;51482;47.014;7.652;2023-03-23T06:51:30;11.00;99.90
64951;DHT22;51482;47.014;7.652;2023-03-23T06:53:56;11.80;99.90
64951;DHT22;51482;47.014;7.652;2023-03-23T06:56:23;11.30;99.90
64951;DHT22;51482;47.014;7.652;2023-03-23T06:58:48;11.80;99.90
64951;DHT22;51482;47.014;7.652;2023-03-23T07:01:14;11.80;99.90
64951;DHT22;51482;47.014;7.652;2023-03-23T07:03:40;11.50;99.90
64951;DHT22;51482;47.014;7.652;2023-03-23T07:06:07;12.00;99.90
64951;DHT22;51482;47.014;7.652;2023-03-23T07:08:33;12.10;99.90
64951;DHT22;51482;47.014;7.652;2023-03-23T07:10:59;12.00;99.90
64951;DHT22;51482;47.014;7.652;2023-03-23T07:13:24;11.90;99.90
64951;DHT22;51482;47.014;7.652;2023-03-23T07:15:50;11.70;99.90
64951;DHT22;51482;47.014;7.652;2023-03-23T07:18:16;12.20;99.90
64951;DHT22;51482;47.014;7.652;2023-03-23T07:20:42;11.40;99.90
64951;DHT22;51482;47.014;7.652;2023-03-23T07:23:08;11.70;99.90
64951;DHT22;51482;47.014;7.652;2023-03-23T07:25:34;11.70;99.90
64951;DHT22;51482;47.014;7.652;2023-03-23T07:28:01;12.40;99.90
64951;DHT22;51482;47.014;7.652;2023-03-23T07:30:27;11.90;99.90
64951;DHT22;51482;47.014;7.652;2023-03-23T07:32:55;12.00;99.90
64951;DHT22;51482;47.014;7.652;2023-03-23T07:35:20;12.10;99.90
64951;DHT22;51482;47.014;7.652;2023-03-23T07:37:47;11.60;99.90
64951;DHT22;51482;47.014;7.652;2023-03-23T07:40:15;12.20;99.90
64951;DHT22;51482;47.014;7.652;2023-03-23T07:42:45;12.30;99.90
64951;DHT22;51482;47.014;7.652;2023-03-23T07:45:12;11.70;99.90
64951;DHT22;51482;47.014;7.652;2023-03-23T07:47:39;12.30;99.90
64951;DHT22;51482;47.014;7.652;2023-03-23T07:50:06;12.80;99.90
64951;DHT22;51482;47.014;7.652;2023-03-23T07:52:32;12.50;99.90
64951;DHT22;51482;47.014;7.652;2023-03-23T07:54:58;12.90;99.90
64951;DHT22;51482;47.014;7.652;2023-03-23T07:57:24;12.20;99.90
64951;DHT22;51482;47.014;7.652;2023-03-23T07:59:49;13.30;99.90
64951;DHT22;51482;47.014;7.652;2023-03-23T08:02:15;12.70;99.90
64951;DHT22;51482;47.014;7.652;2023-03-23T08:04:40;13.30;99.90
64951;DHT22;51482;47.014;7.652;2023-03-23T08:07:07;12.90;99.90
64951;DHT22;51482;47.014;7.652;2023-03-23T08:09:33;12.50;99.90
64951;DHT22;51482;47.014;7.652;2023-03-23T08:11:58;13.00;99.90
64951;DHT22;51482;47.014;7.652;2023-03-23T08:14:24;12.40;99.90
64951;DHT22;51482;47.014;7.652;2023-03-23T08:16:52;13.20;99.90
64951;DHT22;51482;47.014;7.652;2023-03-23T08:19:20;13.10;99.90
64951;DHT22;51482;47.014;7.652;2023-03-23T08:21:46;13.20;99.90
64951;DHT22;51482;47.014;7.652;2023-03-23T08:24:13;13.30;99.90
64951;DHT22;51482;47.014;7.652;2023-03-23T08:26:38;13.30;99.90
64951;DHT22;51482;47.014;7.652;2023-03-23T08:29:04;13.40;99.90
64951;DHT22;51482;47.014;7.652;2023-03-23T08:31:31;13.40;99.90
64951;DHT22;51482;47.014;7.652;2023-03-23T08:34:00;14.00;99.90
64951;DHT22;51482;47.014;7.652;2023-03-23T08:36:26;13.70;99.90
64951;DHT22;51482;47.014;7.652;2023-03-23T08:38:53;13.80;99.90
64951;DHT22;51482;47.014;7.652;2023-03-23T08:41:18;13.70;99.90
64951;DHT22;51482;47.014;7.652;2023-03-23T08:43:44;13.70;99.90
64951;DHT22;51482;47.014;7.652;2023-03-23T08:46:10;14.20;99.90
64951;DHT22;51482;47.014;7.652;2023-03-23T08:48:37;14.10;99.90
64951;DHT22;51482;47.014;7.652;2023-03-23T08:51:04;13.80;99.90
64951;DHT22;51482;47.014;7.652;2023-03-23T08:53:31;13.90;99.90
64951;DHT22;51482;47.014;7.652;2023-03-23T08:56:08;14.00;99.90
64951;DHT22;51482;47.014;7.652;2023-03-23T08:58:37;14.10;99.90
64951;DHT22;51482;47.014;7.652;2023-03-23T09:01:05;14.20;99.90
64951;DHT22;51482;47.014;7.652;2023-03-23T09:03:32;14.40;99.90
64951;DHT22;51482;47.014;7.652;2023-03-23T09:06:03;14.10;99.90
64951;DHT22;51482;47.014;7.652;2023-03-23T09:08:29;14.90;99.90
64951;DHT22;51482;47.014;7.652;2023-03-23T09:10:59;15.10;99.90
64951;DHT22;51482;47.014;7.652;2023-03-23T09:13:25;15.10;99.90
64951;DHT22;51482;47.014;7.652;2023-03-23T09:15:50;14.90;99.90
64951;DHT22;51482;47.014;7.652;2023-03-23T09:18:17;15.40;99.90
64951;DHT22;51482;47.014;7.652;2023-03-23T09:20:43;15.90;99.90
64951;DHT22;51482;47.014;7.652;2023-03-23T09:23:09;15.90;99.90
64951;DHT22;51482;47.014;7.652;2023-03-23T09:25:35;16.60;99.90
64951;DHT22;51482;47.014;7.652;2023-03-23T09:28:01;16.20;99.90
64951;DHT22;51482;47.014;7.652;2023-03-23T09:30:32;16.30;99.90
64951;DHT22;51482;47.014;7.652;2023-03-23T09:33:00;16.40;99.90
64951;DHT22;51482;47.014;7.652;2023-03-23T09:35:27;16.50;99.90
64951;DHT22;51482;47.014;7.652;2023-03-23T09:37:53;16.60;99.90
64951;DHT22;51482;47.014;7.652;2023-03-23T09:40:22;16.90;99.90
64951;DHT22;51482;47.014;7.652;2023-03-23T09:45:25;17.80;99.90
64951;DHT22;51482;47.014;7.652;2023-03-23T09:50:52;18.10;99.90
64951;DHT22;51482;47.014;7.652;2023-03-23T09:53:24;18.40;99.90
64951;DHT22;51482;47.014;7.652;2023-03-23T09:55:50;18.40;99.90
64951;DHT22;51482;47.014;7.652;2023-03-23T10:00:57;18.50;99.90
64951;DHT22;51482;47.014;7.652;2023-03-23T10:03:31;18.50;99.90
64951;DHT22;51482;47.014;7.652;2023-03-23T10:05:58;18.40;99.90
64951;DHT22;51482;47.014;7.652;2023-03-23T10:08:26;19.00;99.80
64951;DHT22;51482;47.014;7.652;2023-03-23T10:13:57;18.70;99.00
64951;DHT22;51482;47.014;7.652;2023-03-23T10:16:31;18.70;97.30
64951;DHT22;51482;47.014;7.652;2023-03-23T10:21:29;18.70;95.30
64951;DHT22;51482;47.014;7.652;2023-03-23T10:24:02;18.00;92.80
64951;DHT22;51482;47.014;7.652;2023-03-23T10:26:48;19.10;92.60
64951;DHT22;51482;47.014;7.652;2023-03-23T10:29:26;18.60;91.50
64951;DHT22;51482;47.014;7.652;2023-03-23T10:34:44;18.40;88.90
64951;DHT22;51482;47.014;7.652;2023-03-23T10:37:17;18.30;88.10
64951;DHT22;51482;47.014;7.652;2023-03-23T10:39:51;18.20;90.20
64951;DHT22;51482;47.014;7.652;2023-03-23T10:42:29;18.50;90.20
64951;DHT22;51482;47.014;7.652;2023-03-23T10:44:59;18.20;87.20
64951;DHT22;51482;47.014;7.652;2023-03-23T10:47:25;18.20;90.90
64951;DHT22;51482;47.014;7.652;2023-03-23T10:49:58;18.30;90.70
64951;DHT22;51482;47.014;7.652;2023-03-23T10:52:34;18.50;89.70
64951;DHT22;51482;47.014;7.652;2023-03-23T10:55:18;18.90;90.60
64951;DHT22;51482;47.014;7.652;2023-03-23T10:58:00;18.80;90.20
64951;DHT22;51482;47.014;7.652;2023-03-23T11:00:27;19.10;92.10
64951;DHT22;51482;47.014;7.652;2023-03-23T11:03:04;19.90;89.30
64951;DHT22;51482;47.014;7.652;2023-03-23T11:05:53;19.30;90.20
64951;DHT22;51482;47.014;7.652;2023-03-23T11:08:22;19.60;89.50
64951;DHT22;51482;47.014;7.652;2023-03-23T11:10:51;19.80;88.90
64951;DHT22;51482;47.014;7.652;2023-03-23T11:13:19;20.40;85.90
64951;DHT22;51482;47.014;7.652;2023-03-23T11:15:47;20.70;82.00
64951;DHT22;51482;47.014;7.652;2023-03-23T11:18:19;21.00;82.70
64951;DHT22;51482;47.014;7.652;2023-03-23T11:20:51;21.30;79.40
64951;DHT22;51482;47.014;7.652;2023-03-23T11:23:33;20.90;77.30
64951;DHT22;51482;47.014;7.652;2023-03-23T11:28:52;20.80;76.40
64951;DHT22;51482;47.014;7.652;2023-03-23T11:31:23;20.90;75.90
64951;DHT22;51482;47.014;7.652;2023-03-23T11:33:57;20.80;76.00
64951;DHT22;51482;47.014;7.652;2023-03-23T11:36:51;21.30;74.90
64951;DHT22;51482;47.014;7.652;2023-03-23T11:39:30;20.90;72.30
64951;DHT22;51482;47.014;7.652;2023-03-23T11:42:01;20.70;70.30
64951;DHT22;51482;47.014;7.652;2023-03-23T11:44:33;21.00;68.10
64951;DHT22;51482;47.014;7.652;2023-03-23T11:47:17;20.30;65.20
64951;DHT22;51482;47.014;7.652;2023-03-23T11:50:01;20.10;68.30
64951;DHT22;51482;47.014;7.652;2023-03-23T11:52:49;20.10;71.00
64951;DHT22;51482;47.014;7.652;2023-03-23T11:55:32;20.10;69.60
64951;DHT22;51482;47.014;7.652;2023-03-23T11:58:11;20.30;65.20
64951;DHT22;51482;47.014;7.652;2023-03-23T12:03:34;21.00;73.60
64951;DHT22;51482;47.014;7.652;2023-03-23T12:06:09;20.60;74.10
64951;DHT22;51482;47.014;7.652;2023-03-23T12:11:26;20.50;70.20
64951;DHT22;51482;47.014;7.652;2023-03-23T12:16:59;21.00;66.80
64951;DHT22;51482;47.014;7.652;2023-03-23T12:27:42;20.70;68.60
64951;DHT22;51482;47.014;7.652;2023-03-23T12:30:19;20.70;67.40
64951;DHT22;51482;47.014;7.652;2023-03-23T12:36:03;20.50;65.90
64951;DHT22;51482;47.014;7.652;2023-03-23T12:39:06;20.60;68.60
64951;DHT22;51482;47.014;7.652;2023-03-23T12:41:57;20.20;63.90
64951;DHT22;51482;47.014;7.652;2023-03-23T12:44:48;20.10;68.90
64951;DHT22;51482;47.014;7.652;2023-03-23T12:47:31;20.10;68.80
64951;DHT22;51482;47.014;7.652;2023-03-23T12:50:30;19.80;69.30
64951;DHT22;51482;47.014;7.652;2023-03-23T12:53:22;19.70;69.90
64951;DHT22;51482;47.014;7.652;2023-03-23T12:56:07;19.60;69.60
64951;DHT22;51482;47.014;7.652;2023-03-23T12:58:41;19.30;72.10
64951;DHT22;51482;47.014;7.652;2023-03-23T13:01:11;19.70;70.40
64951;DHT22;51482;47.014;7.652;2023-03-23T13:04:27;19.70;71.00
64951;DHT22;51482;47.014;7.652;2023-03-23T13:06:51;19.70;71.80
64951;DHT22;51482;47.014;7.652;2023-03-23T13:09:32;19.60;70.60
64951;DHT22;51482;47.014;7.652;2023-03-23T13:12:02;19.60;71.30
64951;DHT22;51482;47.014;7.652;2023-03-23T13:20:34;19.40;73.40
64951;DHT22;51482;47.014;7.652;2023-03-23T13:23:13;19.20;73.10
64951;DHT22;51482;47.014;7.652;2023-03-23T13:28:20;19.00;78.10
64951;DHT22;51482;47.014;7.652;2023-03-23T13:31:04;18.80;76.00
64951;DHT22;51482;47.014;7.652;2023-03-23T13:33:37;18.70;75.00
64951;DHT22;51482;47.014;7.652;2023-03-23T13:36:10;18.80;74.00
64951;DHT22;51482;47.014;7.652;2023-03-23T13:38:37;18.70;73.50
64951;DHT22;51482;47.014;7.652;2023-03-23T13:41:12;18.70;73.80
64951;DHT22;51482;47.014;7.652;2023-03-23T13:43:40;18.60;73.50
64951;DHT22;51482;47.014;7.652;2023-03-23T13:46:09;18.60;72.40
64951;DHT22;51482;47.014;7.652;2023-03-23T13:48:46;18.50;74.20
64951;DHT22;51482;47.014;7.652;2023-03-23T13:56:47;18.40;74.90
64951;DHT22;51482;47.014;7.652;2023-03-23T14:01:39;18.60;78.60
64951;DHT22;51482;47.014;7.652;2023-03-23T14:04:14;18.70;77.20
64951;DHT22;51482;47.014;7.652;2023-03-23T14:06:41;18.70;74.80
64951;DHT22;51482;47.014;7.652;2023-03-23T14:09:13;18.50;74.10
64951;DHT22;51482;47.014;7.652;2023-03-23T14:14:39;18.40;76.60
64951;DHT22;51482;47.014;7.652;2023-03-23T14:17:13;18.60;77.20
64951;DHT22;51482;47.014;7.652;2023-03-23T14:19:41;18.50;77.00
64951;DHT22;51482;47.014;7.652;2023-03-23T14:22:18;18.50;77.60
64951;DHT22;51482;47.014;7.652;2023-03-23T14:24:44;18.40;74.70
64951;DHT22;51482;47.014;7.652;2023-03-23T14:27:17;18.40;77.80
64951;DHT22;51482;47.014;7.652;2023-03-23T14:29:43;18.30;77.20
64951;DHT22;51482;47.014;7.652;2023-03-23T14:32:16;19.10;76.40
64951;DHT22;51482;47.014;7.652;2023-03-23T14:34:43;18.40;75.00
64951;DHT22;51482;47.014;7.652;2023-03-23T14:37:15;18.20;75.80
64951;DHT22;51482;47.014;7.652;2023-03-23T14:39:44;18.70;76.30
64951;DHT22;51482;47.014;7.652;2023-03-23T14:42:18;18.00;75.40
64951;DHT22;51482;47.014;7.652;2023-03-23T14:44:48;17.70;76.20
64951;DHT22;51482;47.014;7.652;2023-03-23T14:47:21;18.00;76.10
64951;DHT22;51482;47.014;7.652;2023-03-23T14:49:53;18.00;76.70
64951;DHT22;51482;47.014;7.652;2023-03-23T14:52:22;18.50;78.60
64951;DHT22;51482;47.014;7.652;2023-03-23T14:54:48;18.00;76.60
64951;DHT22;51482;47.014;7.652;2023-03-23T14:57:27;17.80;74.90
64951;DHT22;51482;47.014;7.652;2023-03-23T14:59:53;17.80;75.90
64951;DHT22;51482;47.014;7.652;2023-03-23T15:02:33;18.00;75.10
64951;DHT22;51482;47.014;7.652;2023-03-23T15:05:02;17.60;79.00
64951;DHT22;51482;47.014;7.652;2023-03-23T15:07:34;17.70;76.50
64951;DHT22;51482;47.014;7.652;2023-03-23T15:10:00;17.90;75.80
64951;DHT22;51482;47.014;7.652;2023-03-23T15:12:28;17.90;76.70
64951;DHT22;51482;47.014;7.652;2023-03-23T15:14:58;17.80;75.30
64951;DHT22;51482;47.014;7.652;2023-03-23T15:17:26;18.20;78.60
64951;DHT22;51482;47.014;7.652;2023-03-23T15:19:53;18.20;75.90
64951;DHT22;51482;47.014;7.652;2023-03-23T15:22:30;18.20;78.60
64951;DHT22;51482;47.014;7.652;2023-03-23T15:25:29;18.20;75.70
64951;DHT22;51482;47.014;7.652;2023-03-23T15:27:58;18.10;76.00
64951;DHT22;51482;47.014;7.652;2023-03-23T15:33:14;18.80;77.00
64951;DHT22;51482;47.014;7.652;2023-03-23T15:35:45;18.80;74.80
64951;DHT22;51482;47.014;7.652;2023-03-23T15:38:19;18.50;75.80
64951;DHT22;51482;47.014;7.652;2023-03-23T15:40:49;18.40;75.20
64951;DHT22;51482;47.014;7.652;2023-03-23T15:43:18;18.50;76.70
64951;DHT22;51482;47.014;7.652;2023-03-23T15:46:18;18.60;74.80
64951;DHT22;51482;47.014;7.652;2023-03-23T15:51:17;19.00;77.30
64951;DHT22;51482;47.014;7.652;2023-03-23T15:53:43;18.50;76.10
64951;DHT22;51482;47.014;7.652;2023-03-23T15:56:11;18.40;75.50
64951;DHT22;51482;47.014;7.652;2023-03-23T15:58:38;18.30;75.60
64951;DHT22;51482;47.014;7.652;2023-03-23T16:01:25;18.30;78.80
64951;DHT22;51482;47.014;7.652;2023-03-23T16:03:52;18.20;77.70
64951;DHT22;51482;47.014;7.652;2023-03-23T16:06:23;18.20;78.60
64951;DHT22;51482;47.014;7.652;2023-03-23T16:08:49;18.60;79.20
64951;DHT22;51482;47.014;7.652;2023-03-23T16:11:16;18.60;80.20
64951;DHT22;51482;47.014;7.652;2023-03-23T16:13:43;18.70;78.30
64951;DHT22;51482;47.014;7.652;2023-03-23T16:16:33;18.70;77.50
64951;DHT22;51482;47.014;7.652;2023-03-23T16:18:59;18.90;77.20
64951;DHT22;51482;47.014;7.652;2023-03-23T16:21:25;18.90;76.90
64951;DHT22;51482;47.014;7.652;2023-03-23T16:23:50;19.00;76.80
64951;DHT22;51482;47.014;7.652;2023-03-23T16:26:16;18.90;77.50
64951;DHT22;51482;47.014;7.652;2023-03-23T16:28:43;18.90;78.30
64951;DHT22;51482;47.014;7.652;2023-03-23T16:31:09;18.70;77.00
64951;DHT22;51482;47.014;7.652;2023-03-23T16:33:34;18.50;77.30
64951;DHT22;51482;47.014;7.652;2023-03-23T16:36:00;18.80;78.20
64951;DHT22;51482;47.014;7.652;2023-03-23T16:38:26;18.30;78.80
64951;DHT22;51482;47.014;7.652;2023-03-23T16:40:52;18.80;79.30
64951;DHT22;51482;47.014;7.652;2023-03-23T16:43:18;18.60;78.40
64951;DHT22;51482;47.014;7.652;2023-03-23T16:45:45;18.60;79.10
64951;DHT22;51482;47.014;7.652;2023-03-23T16:48:12;18.40;78.60
64951;DHT22;51482;47.014;7.652;2023-03-23T16:50:39;18.80;79.30
64951;DHT22;51482;47.014;7.652;2023-03-23T16:53:05;18.30;79.50
64951;DHT22;51482;47.014;7.652;2023-03-23T16:55:32;18.50;80.50
64951;DHT22;51482;47.014;7.652;2023-03-23T16:57:58;18.50;79.80
64951;DHT22;51482;47.014;7.652;2023-03-23T17:00:24;18.60;80.10
64951;DHT22;51482;47.014;7.652;2023-03-23T17:02:52;18.60;79.50
64951;DHT22;51482;47.014;7.652;2023-03-23T17:05:22;18.70;80.10
64951;DHT22;51482;47.014;7.652;2023-03-23T17:07:48;18.60;79.00
64951;DHT22;51482;47.014;7.652;2023-03-23T17:10:15;18.70;81.30
64951;DHT22;51482;47.014;7.652;2023-03-23T17:12:41;18.20;82.30